createdAt,value
2018-12-23T00:00:29.715Z,7.07
2018-12-23T00:02:58.654Z,7.05
2018-12-23T00:05:28.146Z,5.30
2018-12-23T00:08:03.477Z,6.80
2018-12-23T00:10:32.134Z,6.92
2018-12-23T00:13:01.566Z,8.53
2018-12-23T00:15:30.314Z,11.80
2018-12-23T00:17:59.119Z,10.77
2018-12-23T00:20:27.863Z,9.33
2018-12-23T00:22:56.667Z,5.67
2018-12-23T00:28:04.613Z,5.10
2018-12-23T00:30:33.337Z,5.80
2018-12-23T00:35:41.758Z,4.63
2018-12-23T00:40:50.329Z,6.57
2018-12-23T00:45:58.985Z,6.53
2018-12-23T00:51:11.137Z,7.43
2018-12-23T00:53:39.973Z,6.00
2018-12-23T00:56:08.675Z,7.03
2018-12-23T00:58:37.438Z,3.80
2018-12-23T01:01:06.203Z,7.28
2018-12-23T01:03:35.445Z,7.80
2018-12-23T01:06:04.274Z,6.67
2018-12-23T01:08:32.978Z,5.50
2018-12-23T01:11:02.052Z,10.87
2018-12-23T01:13:30.847Z,4.70
2018-12-23T01:15:59.742Z,6.30
2018-12-23T01:18:28.482Z,4.37
2018-12-23T01:20:57.255Z,4.60
2018-12-23T01:23:26.187Z,6.43
2018-12-23T01:25:54.940Z,5.57
2018-12-23T01:28:23.670Z,3.85
2018-12-23T01:30:52.323Z,8.63
2018-12-23T01:33:21.087Z,5.17
2018-12-23T01:35:49.957Z,3.50
2018-12-23T01:38:18.615Z,4.97
2018-12-23T01:40:47.387Z,4.80
2018-12-23T01:43:16.119Z,2.80
2018-12-23T01:45:44.906Z,6.27
2018-12-23T01:48:13.646Z,4.43
2018-12-23T01:50:42.492Z,6.67
2018-12-23T01:53:11.314Z,4.50
2018-12-23T01:55:40.070Z,7.90
2018-12-23T01:58:08.811Z,9.07
2018-12-23T02:00:37.580Z,3.93
2018-12-23T02:03:06.498Z,5.00
2018-12-23T02:05:35.253Z,4.63
2018-12-23T02:08:04.168Z,8.40
2018-12-23T02:10:32.972Z,6.30
2018-12-23T02:13:02.470Z,6.42
2018-12-23T02:15:31.149Z,5.20
2018-12-23T02:17:59.918Z,4.05
2018-12-23T02:20:29.732Z,8.68
2018-12-23T02:22:58.517Z,6.33
2018-12-23T02:25:27.303Z,3.50
2018-12-23T02:27:56.022Z,5.73
2018-12-23T02:30:25.152Z,5.22
2018-12-23T02:32:53.910Z,4.90
2018-12-23T02:35:22.758Z,3.30
2018-12-23T02:37:51.542Z,6.30
2018-12-23T02:40:20.282Z,3.40
2018-12-23T02:42:49.088Z,8.48
2018-12-23T02:45:17.846Z,6.97
2018-12-23T02:47:46.627Z,8.43
2018-12-23T02:50:15.413Z,4.83
2018-12-23T02:52:44.110Z,3.58
2018-12-23T02:55:12.956Z,5.90
2018-12-23T02:57:41.737Z,6.13
2018-12-23T03:00:10.512Z,4.20
2018-12-23T03:02:39.221Z,4.10
2018-12-23T03:05:08.061Z,3.40
2018-12-23T03:07:36.937Z,3.93
2018-12-23T03:10:05.797Z,6.20
2018-12-23T03:12:34.631Z,3.35
2018-12-23T03:15:05.020Z,7.03
2018-12-23T03:17:33.781Z,4.87
2018-12-23T03:23:09.955Z,6.57
2018-12-23T03:25:39.855Z,7.10
2018-12-23T03:28:28.993Z,5.40
2018-12-23T03:30:58.979Z,4.50
2018-12-23T03:33:28.934Z,5.53
2018-12-23T03:35:58.882Z,7.87
2018-12-23T03:38:48.006Z,8.00
2018-12-23T03:41:17.913Z,5.47
2018-12-23T03:44:07.050Z,5.03
2018-12-23T03:46:37.004Z,7.33
2018-12-23T03:49:08.049Z,7.63
2018-12-23T03:51:43.986Z,9.80
2018-12-23T03:54:14.233Z,6.83
2018-12-23T04:00:05.920Z,20.40
2018-12-23T04:05:35.957Z,6.63
2018-12-23T04:08:05.911Z,7.47
2018-12-23T04:10:35.835Z,9.80
2018-12-23T04:21:28.769Z,7.77
2018-12-23T04:23:58.693Z,7.83
2018-12-23T04:29:31.520Z,14.43
2018-12-23T04:32:01.735Z,9.50
2018-12-23T04:34:31.784Z,9.33
2018-12-23T04:37:01.747Z,6.50
2018-12-23T04:39:31.863Z,6.20
2018-12-23T04:42:20.856Z,6.80
2018-12-23T04:44:50.882Z,5.40
2018-12-23T04:47:20.994Z,11.63
2018-12-23T04:50:09.957Z,7.43
2018-12-23T04:55:42.707Z,6.40
2018-12-23T04:58:12.573Z,10.93
2018-12-23T05:00:47.939Z,13.20
2018-12-23T05:03:42.599Z,7.53
2018-12-23T05:06:27.613Z,13.25
2018-12-23T05:09:16.444Z,10.28
2018-12-23T05:11:46.387Z,11.33
2018-12-23T05:14:16.396Z,7.10
2018-12-23T05:16:46.297Z,8.43
2018-12-23T05:19:16.231Z,8.63
2018-12-23T05:21:46.116Z,9.60
2018-12-23T05:24:16.048Z,11.00
2018-12-23T05:26:45.987Z,12.10
2018-12-23T05:29:40.895Z,10.40
2018-12-23T05:32:10.809Z,11.57
2018-12-23T05:34:40.858Z,10.18
2018-12-23T05:37:10.989Z,10.90
2018-12-23T05:39:59.894Z,9.27
2018-12-23T05:42:35.488Z,10.60
2018-12-23T05:45:24.464Z,16.50
2018-12-23T05:47:54.508Z,9.60
2018-12-23T05:50:43.333Z,7.30
2018-12-23T05:53:13.299Z,11.50
2018-12-23T05:55:41.765Z,9.35
2018-12-23T05:58:11.833Z,10.30
2018-12-23T06:00:41.759Z,11.10
2018-12-23T06:03:30.870Z,7.33
2018-12-23T06:06:00.787Z,11.27
2018-12-23T06:08:30.695Z,10.55
2018-12-23T06:11:38.680Z,7.22
2018-12-23T06:14:08.595Z,11.13
2018-12-23T06:16:38.535Z,9.07
2018-12-23T06:19:08.503Z,8.60
2018-12-23T06:21:38.510Z,10.17
2018-12-23T06:24:08.418Z,8.20
2018-12-23T06:35:16.289Z,7.35
2018-12-23T06:38:05.137Z,9.03
2018-12-23T06:40:35.029Z,11.20
2018-12-23T06:43:23.915Z,14.63
2018-12-23T06:54:20.244Z,11.27
2018-12-23T06:56:50.251Z,16.07
2018-12-23T07:04:55.915Z,10.80
2018-12-23T07:11:18.863Z,6.80
2018-12-23T07:13:48.769Z,14.60
2018-12-23T07:16:18.756Z,13.93
2018-12-23T07:18:48.704Z,15.20
2018-12-23T07:21:18.640Z,14.50
2018-12-23T07:23:48.665Z,19.33
2018-12-23T07:26:18.659Z,11.73
2018-12-23T07:28:48.702Z,11.30
2018-12-23T07:31:18.635Z,14.27
2018-12-23T07:33:48.566Z,12.10
2018-12-23T07:36:18.478Z,12.83
2018-12-23T07:38:48.426Z,15.20
2018-12-23T07:41:18.360Z,10.57
2018-12-23T07:46:44.905Z,14.57
2018-12-23T07:49:16.571Z,18.63
2018-12-23T07:51:46.476Z,13.27
2018-12-23T07:54:28.176Z,16.53
2018-12-23T07:56:58.134Z,15.70
2018-12-23T07:59:39.640Z,12.68
2018-12-23T08:04:58.412Z,11.80
2018-12-23T08:07:35.995Z,16.10
2018-12-23T08:10:05.966Z,12.67
2018-12-23T08:12:35.899Z,15.77
2018-12-23T08:15:05.869Z,14.83
2018-12-23T08:17:35.799Z,13.10
2018-12-23T08:20:06.718Z,20.00
2018-12-23T08:22:36.710Z,17.83
2018-12-23T08:25:06.689Z,17.83
2018-12-23T08:27:36.725Z,13.00
2018-12-23T08:30:06.710Z,15.13
2018-12-23T08:32:36.639Z,17.65
2018-12-23T08:35:06.577Z,16.97
2018-12-23T08:37:44.448Z,16.10
2018-12-23T08:40:13.863Z,15.13
2018-12-23T08:42:43.819Z,13.23
2018-12-23T08:45:13.782Z,17.80
2018-12-23T08:53:38.792Z,15.40
2018-12-23T08:56:08.771Z,17.70
2018-12-23T09:01:42.020Z,14.90
2018-12-23T09:04:23.770Z,17.83
2018-12-23T09:09:53.870Z,20.40
2018-12-23T09:12:23.822Z,16.37
2018-12-23T09:15:12.671Z,25.20
2018-12-23T09:17:42.697Z,20.27
2018-12-23T09:20:12.994Z,14.60
2018-12-23T09:25:56.147Z,19.43
2018-12-23T09:31:08.321Z,18.90
2018-12-23T09:33:38.307Z,17.13
2018-12-23T09:36:08.199Z,15.37
2018-12-23T09:41:38.345Z,26.40
2018-12-23T09:44:08.307Z,20.60
2018-12-23T09:46:38.177Z,21.93
2018-12-23T09:49:08.167Z,18.77
2018-12-23T09:51:38.079Z,20.27
2018-12-23T09:54:08.062Z,20.07
2018-12-23T09:56:38.043Z,16.80
2018-12-23T09:59:08.118Z,29.30
2018-12-23T10:01:38.073Z,21.23
2018-12-23T10:07:02.470Z,23.97
2018-12-23T10:12:52.245Z,26.40
2018-12-23T10:15:22.237Z,23.80
2018-12-23T10:17:52.162Z,31.43
2018-12-23T10:20:22.584Z,24.07
2018-12-23T10:22:52.486Z,20.83
2018-12-23T10:25:22.528Z,37.13
2018-12-23T10:27:52.644Z,20.63
2018-12-23T10:30:41.798Z,24.83
2018-12-23T10:33:11.706Z,24.20
2018-12-23T10:35:41.707Z,24.20
2018-12-23T10:38:18.289Z,25.93
2018-12-23T10:40:48.501Z,23.80
2018-12-23T10:43:18.493Z,28.53
2018-12-23T10:45:51.836Z,23.07
2018-12-23T10:48:22.523Z,27.07
2018-12-23T10:50:52.762Z,23.92
2018-12-23T10:53:22.805Z,15.43
2018-12-23T10:55:53.215Z,17.70
2018-12-23T10:58:23.366Z,21.80
2018-12-23T11:00:53.826Z,18.83
2018-12-23T11:03:24.447Z,17.40
2018-12-23T11:05:54.631Z,23.42
2018-12-23T11:08:27.013Z,22.50
2018-12-23T11:14:10.869Z,24.70
2018-12-23T11:17:02.204Z,19.43
2018-12-23T11:19:46.141Z,19.73
2018-12-23T11:22:43.780Z,19.97
2018-12-23T11:28:18.840Z,21.23
2018-12-23T11:30:51.617Z,17.40
2018-12-23T11:33:22.089Z,19.77
2018-12-23T11:36:11.397Z,20.53
2018-12-23T11:38:41.373Z,27.03
2018-12-23T11:41:30.644Z,24.23
2018-12-23T11:46:42.248Z,18.10
2018-12-23T11:49:14.059Z,22.17
2018-12-23T11:51:43.985Z,16.83
2018-12-23T11:54:14.617Z,24.93
2018-12-23T11:57:03.780Z,24.87
2018-12-23T11:59:34.377Z,16.53
2018-12-23T12:02:23.383Z,23.00
2018-12-23T12:07:35.035Z,14.67
2018-12-23T12:10:16.877Z,25.13
2018-12-23T12:12:46.819Z,21.33
2018-12-23T12:15:16.880Z,20.72
2018-12-23T12:17:46.884Z,27.57
2018-12-23T12:22:58.293Z,26.73
2018-12-23T12:25:47.458Z,11.93
2018-12-23T12:28:17.450Z,24.60
2018-12-23T12:31:06.345Z,18.27
2018-12-23T12:33:36.267Z,12.17
2018-12-23T12:36:18.380Z,22.60
2018-12-23T12:38:52.172Z,20.73
2018-12-23T12:41:25.805Z,16.43
2018-12-23T12:43:55.889Z,17.80
2018-12-23T12:46:25.906Z,20.97
2018-12-23T12:48:57.470Z,18.33
2018-12-23T12:51:27.575Z,19.05
2018-12-23T12:53:57.510Z,21.07
2018-12-23T12:56:27.530Z,20.80
2018-12-23T13:01:59.893Z,25.10
2018-12-23T13:04:35.089Z,18.55
2018-12-23T13:09:46.033Z,23.10
2018-12-23T13:12:16.168Z,29.10
2018-12-23T13:14:46.154Z,31.07
2018-12-23T13:17:16.196Z,26.77
2018-12-23T13:19:46.129Z,23.40
2018-12-23T13:24:57.430Z,24.70
2018-12-23T13:33:22.882Z,15.40
2018-12-23T13:38:44.872Z,17.43
2018-12-23T13:41:47.812Z,17.20
2018-12-23T13:45:16.958Z,12.70
2018-12-23T13:48:25.400Z,15.70
2018-12-23T13:51:33.837Z,16.97
2018-12-23T13:54:16.645Z,14.10
2018-12-23T13:57:25.160Z,13.73
2018-12-23T14:00:33.404Z,13.60
2018-12-23T14:03:26.148Z,17.37
2018-12-23T14:06:20.542Z,14.57
2018-12-23T14:09:28.910Z,16.80
2018-12-23T14:11:59.045Z,10.50
2018-12-23T14:14:48.247Z,14.70
2018-12-23T14:17:40.748Z,15.63
2018-12-23T14:20:30.001Z,16.37
2018-12-23T14:23:00.331Z,16.60
2018-12-23T14:25:49.329Z,20.80
2018-12-23T14:28:21.263Z,18.80
2018-12-23T14:30:53.198Z,15.28
2018-12-23T14:33:23.642Z,18.60
2018-12-23T14:36:13.191Z,23.00
2018-12-23T14:38:43.356Z,14.63
2018-12-23T14:41:13.472Z,20.47
2018-12-23T14:43:43.901Z,17.30
2018-12-23T14:46:13.837Z,19.13
2018-12-23T14:48:44.124Z,23.93
2018-12-23T14:51:14.051Z,23.43
2018-12-23T14:53:44.274Z,18.13
2018-12-23T14:56:14.593Z,17.87
2018-12-23T14:59:03.873Z,20.07
2018-12-23T15:01:34.053Z,15.08
2018-12-23T15:04:16.220Z,21.87
2018-12-23T15:07:05.783Z,18.10
2018-12-23T15:12:25.022Z,19.20
2018-12-23T15:14:55.305Z,14.73
2018-12-23T15:17:25.895Z,17.03
2018-12-23T15:19:56.082Z,14.30
2018-12-23T15:22:40.333Z,14.80
2018-12-23T15:25:22.938Z,16.77
2018-12-23T15:27:52.905Z,21.37
2018-12-23T15:30:22.986Z,18.40
2018-12-23T15:32:52.906Z,14.33
2018-12-23T15:35:22.955Z,15.43
2018-12-23T15:41:12.409Z,15.80
2018-12-23T15:43:42.529Z,17.53
2018-12-23T15:46:31.645Z,19.50
2018-12-23T15:52:04.207Z,16.47
2018-12-23T15:54:36.053Z,13.17
2018-12-23T15:57:06.434Z,21.97
2018-12-23T16:02:59.197Z,15.80
2018-12-23T16:05:32.051Z,16.77
2018-12-23T16:08:21.000Z,15.15
2018-12-23T16:16:46.468Z,18.62
2018-12-23T16:19:16.645Z,20.70
2018-12-23T16:22:05.686Z,18.80
2018-12-23T16:24:35.879Z,19.13
2018-12-23T16:27:05.974Z,22.02
2018-12-23T16:29:35.982Z,12.35
2018-12-23T16:32:06.009Z,21.52
2018-12-23T16:34:35.891Z,18.05
2018-12-23T16:37:25.098Z,26.62
2018-12-23T16:39:59.551Z,25.03
2018-12-23T16:42:35.862Z,14.77
2018-12-23T16:45:06.214Z,15.13
2018-12-23T16:47:36.193Z,19.73
2018-12-23T16:50:07.197Z,17.53
2018-12-23T16:52:37.204Z,17.87
2018-12-23T16:55:07.350Z,13.97
2018-12-23T16:57:56.234Z,16.33
2018-12-23T17:00:26.180Z,16.97
2018-12-23T17:06:09.990Z,13.28
2018-12-23T17:08:40.042Z,15.50
2018-12-23T17:11:29.161Z,14.17
2018-12-23T17:16:53.705Z,17.63
2018-12-23T17:19:23.754Z,14.80
2018-12-23T17:21:53.760Z,17.55
2018-12-23T17:24:23.711Z,19.45
2018-12-23T17:26:53.850Z,14.80
2018-12-23T17:29:23.759Z,16.80
2018-12-23T17:31:53.855Z,24.37
2018-12-23T17:34:23.802Z,17.52
2018-12-23T17:36:53.819Z,17.55
2018-12-23T17:39:42.700Z,18.50
2018-12-23T17:42:12.841Z,16.20
2018-12-23T17:44:42.867Z,14.50
2018-12-23T17:47:13.523Z,15.97
2018-12-23T17:49:43.532Z,23.37
2018-12-23T17:55:09.391Z,17.97
2018-12-23T17:57:58.995Z,21.30
2018-12-23T18:00:29.181Z,20.93
2018-12-23T18:02:59.191Z,17.70
2018-12-23T18:05:48.306Z,21.47
2018-12-23T18:08:18.553Z,25.53
2018-12-23T18:10:49.066Z,26.77
2018-12-23T18:16:14.293Z,21.47
2018-12-23T18:18:44.643Z,19.63
2018-12-23T18:21:14.923Z,19.37
2018-12-23T18:23:45.161Z,22.17
2018-12-23T18:26:15.231Z,25.73
2018-12-23T18:28:45.338Z,15.40
2018-12-23T18:31:34.377Z,13.10
2018-12-23T18:34:04.595Z,20.87
2018-12-23T18:36:34.547Z,26.73
2018-12-23T18:39:25.419Z,13.43
2018-12-23T18:41:55.478Z,19.53
2018-12-23T18:44:27.724Z,16.73
2018-12-23T18:46:58.108Z,13.93
2018-12-23T18:49:28.483Z,15.87
2018-12-23T18:58:04.947Z,17.47
2018-12-23T19:00:36.137Z,13.97
2018-12-23T19:06:22.736Z,20.87
2018-12-23T19:13:07.736Z,17.77
2018-12-23T19:16:05.594Z,15.05
2018-12-23T19:19:15.415Z,19.35
2018-12-23T19:22:37.127Z,13.70
2018-12-23T19:25:45.573Z,34.05
2018-12-23T19:28:31.480Z,23.53
2018-12-23T19:34:52.460Z,16.82
2018-12-23T19:37:50.729Z,27.77
2018-12-23T19:41:00.530Z,22.70
2018-12-23T19:43:57.917Z,25.03
2018-12-23T19:47:06.438Z,23.40
2018-12-23T19:50:15.167Z,17.77
2018-12-23T19:53:26.174Z,19.77
2018-12-23T19:56:34.984Z,20.23
2018-12-23T19:59:43.680Z,23.20
2018-12-23T20:02:52.167Z,19.43
2018-12-23T20:06:00.830Z,24.77
2018-12-23T20:09:28.401Z,20.67
2018-12-23T20:12:41.435Z,19.10
2018-12-23T20:15:56.255Z,18.33
2018-12-23T20:19:04.792Z,19.62
2018-12-23T20:22:13.833Z,14.30
2018-12-23T20:25:22.725Z,19.63
2018-12-23T20:28:31.567Z,14.90
2018-12-23T20:31:40.319Z,11.43
2018-12-23T20:34:44.674Z,14.87
2018-12-23T20:38:12.432Z,7.23
2018-12-23T20:41:20.956Z,10.47
2018-12-23T20:44:29.498Z,12.73
2018-12-23T20:50:58.628Z,7.10
2018-12-23T20:54:08.946Z,6.27
2018-12-23T20:57:17.709Z,18.03
2018-12-23T21:00:26.632Z,11.40
2018-12-23T21:03:24.496Z,16.42
2018-12-23T21:06:21.358Z,18.67
2018-12-23T21:09:30.091Z,11.07
2018-12-23T21:12:41.288Z,10.07
2018-12-23T21:15:49.723Z,11.57
2018-12-23T21:18:58.148Z,15.43
2018-12-23T21:22:06.926Z,12.57
2018-12-23T21:25:11.141Z,12.83
2018-12-23T21:28:34.405Z,10.10
2018-12-23T21:31:45.242Z,12.37
2018-12-23T21:34:53.969Z,9.50
2018-12-23T21:38:11.984Z,15.13
2018-12-23T21:41:33.125Z,12.03
2018-12-23T21:44:42.414Z,7.20
2018-12-23T21:47:50.940Z,7.87
2018-12-23T21:54:10.641Z,8.18
2018-12-23T21:57:22.243Z,9.20
2018-12-23T22:00:30.794Z,7.83
2018-12-23T22:03:48.170Z,7.67
2018-12-23T22:06:56.964Z,9.77
2018-12-23T22:10:06.571Z,7.20
2018-12-23T22:13:15.271Z,7.17
2018-12-23T22:15:57.992Z,5.65
2018-12-23T22:21:31.799Z,8.15
2018-12-23T22:26:44.241Z,7.10
2018-12-23T22:29:26.580Z,7.00
2018-12-23T22:31:57.335Z,6.40
2018-12-23T22:34:27.990Z,7.03
2018-12-23T22:36:58.685Z,9.17
2018-12-23T22:39:29.329Z,11.38
2018-12-23T22:42:20.534Z,10.78
2018-12-23T22:44:51.291Z,11.35
2018-12-23T22:47:21.711Z,9.03
2018-12-23T22:50:04.420Z,9.53
2018-12-23T22:52:30.062Z,10.63
2018-12-23T22:55:00.571Z,9.67
2018-12-23T22:57:31.037Z,6.63
2018-12-23T23:00:01.272Z,10.10
2018-12-23T23:02:33.551Z,7.83
2018-12-23T23:05:09.201Z,6.47
2018-12-23T23:07:42.567Z,8.73
2018-12-23T23:10:13.214Z,9.07
2018-12-23T23:12:43.386Z,9.47
2018-12-23T23:18:16.344Z,5.37
2018-12-23T23:20:46.236Z,9.20
2018-12-23T23:23:35.149Z,5.20
2018-12-23T23:34:41.633Z,5.70
2018-12-23T23:37:11.616Z,4.53
2018-12-23T23:39:41.601Z,4.40
2018-12-23T23:42:32.307Z,3.50
2018-12-23T23:45:08.075Z,4.60
2018-12-23T23:50:40.985Z,3.50
2018-12-23T23:53:23.268Z,12.25
2018-12-23T23:55:48.706Z,5.57
2018-12-23T23:58:30.803Z,4.63
